createdAt,value
2019-05-11T00:00:47.599Z,12.12
2019-05-11T00:02:58.470Z,12.10
2019-05-11T00:05:09.410Z,12.15
2019-05-11T00:07:20.294Z,12.16
2019-05-11T00:09:31.270Z,12.17
2019-05-11T00:11:42.219Z,12.17
2019-05-11T00:13:53.091Z,12.18
2019-05-11T00:16:03.924Z,12.20
2019-05-11T00:18:14.925Z,12.26
2019-05-11T00:20:25.747Z,12.30
2019-05-11T00:22:36.605Z,12.34
2019-05-11T00:24:49.509Z,12.38
2019-05-11T00:27:00.423Z,12.37
2019-05-11T00:29:11.261Z,12.34
2019-05-11T00:31:22.125Z,12.35
2019-05-11T00:33:32.955Z,12.34
2019-05-11T00:35:43.817Z,12.43
2019-05-11T00:37:54.652Z,12.37
2019-05-11T00:40:14.012Z,12.33
2019-05-11T00:42:18.472Z,12.38
2019-05-11T00:44:29.368Z,12.38
2019-05-11T00:46:40.200Z,12.32
2019-05-11T00:48:51.036Z,12.26
2019-05-11T00:51:02.092Z,12.20
2019-05-11T00:53:13.103Z,12.20
2019-05-11T00:55:24.073Z,12.17
2019-05-11T00:57:34.916Z,12.11
2019-05-11T00:59:45.850Z,12.12
2019-05-11T01:01:56.722Z,12.12
2019-05-11T01:04:07.573Z,12.16
2019-05-11T01:06:18.441Z,12.17
2019-05-11T01:08:29.271Z,12.19
2019-05-11T01:10:42.554Z,12.21
2019-05-11T01:12:52.863Z,12.30
2019-05-11T01:15:04.296Z,12.31
2019-05-11T01:17:15.168Z,12.22
2019-05-11T01:19:26.112Z,12.21
2019-05-11T01:21:36.972Z,12.15
2019-05-11T01:23:47.813Z,12.11
2019-05-11T01:25:58.680Z,12.12
2019-05-11T01:28:09.537Z,12.13
2019-05-11T01:30:20.384Z,12.15
2019-05-11T01:32:31.239Z,12.17
2019-05-11T01:34:42.099Z,12.17
2019-05-11T01:36:52.980Z,12.14
2019-05-11T01:39:05.232Z,12.19
2019-05-11T01:41:16.294Z,12.18
2019-05-11T01:43:27.267Z,12.12
2019-05-11T01:45:38.109Z,12.10
2019-05-11T01:47:48.994Z,12.09
2019-05-11T01:49:59.924Z,12.10
2019-05-11T01:52:10.792Z,12.16
2019-05-11T01:54:21.751Z,12.17
2019-05-11T01:56:32.596Z,12.19
2019-05-11T01:58:43.438Z,12.23
2019-05-11T02:00:54.298Z,12.26
2019-05-11T02:03:05.265Z,12.30
2019-05-11T02:05:28.679Z,12.33
2019-05-11T02:07:39.709Z,12.33
2019-05-11T02:09:50.693Z,12.36
2019-05-11T02:12:01.638Z,12.36
2019-05-11T02:14:12.484Z,12.32
2019-05-11T02:16:23.340Z,12.31
2019-05-11T02:18:34.215Z,12.30
2019-05-11T02:20:45.177Z,12.35
2019-05-11T02:22:56.149Z,12.36
2019-05-11T02:25:07.979Z,12.42
2019-05-11T02:27:18.950Z,12.46
2019-05-11T02:29:29.921Z,12.45
2019-05-11T02:31:40.899Z,12.46
2019-05-11T02:33:51.746Z,12.47
2019-05-11T02:36:02.703Z,12.47
2019-05-11T02:38:13.554Z,12.51
2019-05-11T02:40:24.708Z,12.53
2019-05-11T02:42:35.812Z,12.57
2019-05-11T02:44:46.666Z,12.54
2019-05-11T02:46:57.625Z,12.55
2019-05-11T02:49:08.476Z,12.54
2019-05-11T02:51:19.619Z,12.53
2019-05-11T02:53:34.091Z,12.56
2019-05-11T02:55:45.763Z,12.57
2019-05-11T02:57:56.601Z,12.60
2019-05-11T03:00:08.656Z,12.60
2019-05-11T03:02:19.487Z,12.61
2019-05-11T03:04:30.384Z,12.57
2019-05-11T03:06:41.217Z,12.57
2019-05-11T03:08:52.211Z,12.52
2019-05-11T03:11:03.026Z,12.56
2019-05-11T03:13:13.979Z,12.62
2019-05-11T03:15:24.841Z,12.57
2019-05-11T03:17:35.658Z,12.59
2019-05-11T03:19:46.611Z,12.62
2019-05-11T03:21:57.465Z,12.62
2019-05-11T03:24:08.386Z,12.62
2019-05-11T03:26:19.255Z,12.68
2019-05-11T03:28:30.079Z,12.72
2019-05-11T03:30:41.105Z,12.73
2019-05-11T03:32:51.997Z,12.75
2019-05-11T03:35:03.645Z,12.76
2019-05-11T03:37:14.500Z,12.76
2019-05-11T03:39:25.335Z,12.76
2019-05-11T03:41:36.185Z,12.79
2019-05-11T03:43:47.019Z,12.81
2019-05-11T03:45:57.872Z,12.84
2019-05-11T03:48:08.710Z,12.85
2019-05-11T03:50:19.665Z,12.88
2019-05-11T03:52:30.522Z,12.89
2019-05-11T03:54:41.370Z,12.88
2019-05-11T03:56:52.216Z,12.93
2019-05-11T03:59:03.073Z,12.94
2019-05-11T04:01:13.963Z,12.95
2019-05-11T04:03:24.794Z,12.97
2019-05-11T04:05:35.631Z,13.00
2019-05-11T04:07:46.497Z,13.01
2019-05-11T04:09:57.440Z,13.03
2019-05-11T04:12:08.311Z,13.05
2019-05-11T04:14:19.161Z,13.02
2019-05-11T04:16:30.034Z,13.04
2019-05-11T04:18:40.862Z,13.11
2019-05-11T04:20:51.726Z,13.13
2019-05-11T04:23:02.603Z,13.18
2019-05-11T04:25:13.562Z,13.16
2019-05-11T04:27:24.420Z,13.15
2019-05-11T04:29:35.254Z,13.17
2019-05-11T04:31:46.225Z,13.18
2019-05-11T04:33:57.070Z,13.23
2019-05-11T04:36:08.003Z,13.23
2019-05-11T04:38:18.869Z,13.25
2019-05-11T04:40:30.088Z,13.28
2019-05-11T04:42:54.093Z,13.28
2019-05-11T04:44:53.662Z,13.29
2019-05-11T04:47:04.535Z,13.32
2019-05-11T04:49:15.377Z,13.32
2019-05-11T04:51:26.201Z,13.38
2019-05-11T04:53:37.074Z,13.42
2019-05-11T04:55:47.902Z,13.47
2019-05-11T04:57:58.748Z,13.48
2019-05-11T05:00:10.184Z,13.55
2019-05-11T05:02:21.847Z,13.58
2019-05-11T05:04:32.857Z,13.65
2019-05-11T05:06:47.760Z,13.62
2019-05-11T05:08:58.087Z,13.68
2019-05-11T05:11:09.359Z,13.71
2019-05-11T05:13:23.452Z,13.71
2019-05-11T05:15:33.029Z,13.73
2019-05-11T05:17:43.902Z,13.78
2019-05-11T05:19:54.766Z,13.78
2019-05-11T05:22:05.600Z,13.79
2019-05-11T05:24:16.473Z,13.84
2019-05-11T05:26:27.524Z,13.83
2019-05-11T05:28:38.411Z,13.85
2019-05-11T05:30:49.261Z,13.86
2019-05-11T05:33:00.122Z,13.90
2019-05-11T05:35:11.183Z,13.91
2019-05-11T05:37:22.014Z,13.96
2019-05-11T05:39:32.868Z,14.07
2019-05-11T05:41:56.187Z,14.12
2019-05-11T05:43:56.467Z,14.19
2019-05-11T05:46:07.304Z,14.23
2019-05-11T05:48:18.201Z,14.22
2019-05-11T05:50:29.146Z,14.23
2019-05-11T05:52:39.998Z,14.25
2019-05-11T05:54:50.851Z,14.26
2019-05-11T05:57:01.853Z,14.29
2019-05-11T05:59:12.746Z,14.38
2019-05-11T06:01:23.633Z,14.44
2019-05-11T06:03:34.459Z,14.42
2019-05-11T06:05:45.388Z,14.38
2019-05-11T06:07:56.267Z,14.36
2019-05-11T06:10:07.345Z,14.30
2019-05-11T06:12:18.295Z,14.29
2019-05-11T06:14:29.153Z,14.29
2019-05-11T06:16:39.993Z,14.27
2019-05-11T06:18:50.940Z,14.26
2019-05-11T06:21:01.814Z,14.18
2019-05-11T06:23:12.761Z,14.21
2019-05-11T06:25:23.722Z,14.17
2019-05-11T06:27:34.662Z,14.16
2019-05-11T06:29:45.583Z,14.14
2019-05-11T06:31:56.476Z,14.12
2019-05-11T06:34:07.318Z,14.17
2019-05-11T06:36:18.185Z,14.16
2019-05-11T06:38:29.024Z,14.15
2019-05-11T06:40:39.872Z,14.17
2019-05-11T06:42:50.831Z,14.21
2019-05-11T06:45:03.331Z,14.16
2019-05-11T06:47:14.160Z,14.16
2019-05-11T06:49:25.003Z,14.19
2019-05-11T06:51:39.807Z,14.27
2019-05-11T06:53:48.594Z,14.38
2019-05-11T06:55:59.552Z,14.58
2019-05-11T06:58:10.416Z,14.77
2019-05-11T07:00:21.472Z,15.07
2019-05-11T07:02:32.579Z,15.74
2019-05-11T07:04:43.481Z,16.45
2019-05-11T07:06:54.444Z,16.75
2019-05-11T07:09:06.398Z,16.89
2019-05-11T07:11:17.267Z,16.87
2019-05-11T07:13:28.124Z,16.73
2019-05-11T07:15:38.973Z,16.53
2019-05-11T07:17:49.867Z,16.22
2019-05-11T07:20:00.714Z,16.07
2019-05-11T07:22:11.595Z,16.04
2019-05-11T07:24:22.543Z,16.07
2019-05-11T07:26:33.499Z,16.07
2019-05-11T07:28:44.475Z,16.07
2019-05-11T07:30:55.339Z,16.08
2019-05-11T07:33:08.105Z,16.16
2019-05-11T07:35:18.975Z,16.16
2019-05-11T07:37:29.935Z,16.13
2019-05-11T07:39:41.030Z,16.08
2019-05-11T07:41:51.876Z,16.00
2019-05-11T07:44:02.825Z,15.88
2019-05-11T07:46:13.765Z,15.79
2019-05-11T07:48:24.750Z,15.74
2019-05-11T07:50:35.593Z,15.76
2019-05-11T07:52:48.296Z,15.75
2019-05-11T07:54:59.249Z,15.80
2019-05-11T07:57:10.158Z,15.94
2019-05-11T07:59:21.018Z,16.38
2019-05-11T08:01:31.862Z,16.79
2019-05-11T08:03:42.850Z,17.22
2019-05-11T08:05:53.967Z,18.00
2019-05-11T08:08:04.933Z,18.00
2019-05-11T08:10:18.396Z,19.01
2019-05-11T08:12:28.838Z,19.24
2019-05-11T08:14:56.631Z,19.25
2019-05-11T08:16:53.313Z,19.06
2019-05-11T08:19:07.072Z,18.89
2019-05-11T08:21:17.821Z,18.85
2019-05-11T08:23:29.006Z,18.97
2019-05-11T08:25:39.872Z,18.96
2019-05-11T08:27:50.730Z,18.97
2019-05-11T08:30:01.843Z,19.00
2019-05-11T08:32:12.782Z,19.06
2019-05-11T08:34:23.748Z,19.01
2019-05-11T08:36:34.698Z,18.82
2019-05-11T08:38:48.098Z,18.72
2019-05-11T08:40:59.157Z,18.58
2019-05-11T08:43:10.303Z,18.60
2019-05-11T08:45:24.751Z,18.62
2019-05-11T08:47:34.046Z,18.73
2019-05-11T08:49:45.050Z,18.72
2019-05-11T08:51:57.828Z,18.67
2019-05-11T08:54:09.195Z,18.34
2019-05-11T08:56:20.145Z,18.32
2019-05-11T08:58:30.978Z,18.44
2019-05-11T09:00:41.971Z,18.71
2019-05-11T09:02:52.913Z,19.08
2019-05-11T09:05:05.165Z,19.49
2019-05-11T09:07:18.263Z,19.51
2019-05-11T09:09:28.972Z,19.34
2019-05-11T09:11:39.914Z,19.37
2019-05-11T09:13:50.783Z,19.56
2019-05-11T09:16:01.634Z,19.91
2019-05-11T09:18:12.482Z,20.18
2019-05-11T09:20:23.346Z,20.10
2019-05-11T09:22:34.313Z,20.01
2019-05-11T09:24:47.605Z,19.69
2019-05-11T09:26:58.693Z,19.53
2019-05-11T09:29:09.664Z,19.23
2019-05-11T09:31:20.544Z,18.92
2019-05-11T09:33:31.679Z,18.61
2019-05-11T09:35:50.089Z,18.29
2019-05-11T09:37:55.338Z,18.11
2019-05-11T09:40:07.863Z,18.14
2019-05-11T09:42:18.884Z,18.27
2019-05-11T09:44:29.748Z,18.72
2019-05-11T09:46:40.719Z,19.29
2019-05-11T09:48:51.815Z,19.67
2019-05-11T09:51:02.773Z,19.93
2019-05-11T09:53:13.632Z,20.25
2019-05-11T09:55:24.474Z,20.49
2019-05-11T09:57:35.343Z,20.56
2019-05-11T09:59:47.767Z,20.82
2019-05-11T10:01:59.120Z,21.01
2019-05-11T10:04:10.220Z,21.10
2019-05-11T10:06:21.571Z,20.92
2019-05-11T10:08:32.549Z,20.72
2019-05-11T10:10:43.739Z,20.76
2019-05-11T10:12:54.614Z,20.57
2019-05-11T10:15:08.393Z,20.44
2019-05-11T10:17:19.639Z,20.18
2019-05-11T10:19:30.624Z,20.22
2019-05-11T10:21:41.479Z,20.65
2019-05-11T10:23:52.372Z,21.08
2019-05-11T10:26:03.248Z,21.15
2019-05-11T10:28:17.895Z,21.00
2019-05-11T10:30:28.800Z,20.84
2019-05-11T10:32:40.551Z,20.79
2019-05-11T10:34:51.456Z,20.54
2019-05-11T10:37:02.400Z,20.26
2019-05-11T10:39:13.301Z,20.01
2019-05-11T10:41:24.151Z,19.85
2019-05-11T10:43:35.024Z,19.88
2019-05-11T10:45:48.186Z,19.89
2019-05-11T10:48:01.123Z,19.77
2019-05-11T10:50:12.073Z,19.64
2019-05-11T10:52:22.923Z,19.43
2019-05-11T10:54:34.004Z,19.23
2019-05-11T10:56:44.883Z,19.19
2019-05-11T10:58:58.734Z,19.77
2019-05-11T11:01:09.665Z,19.77
2019-05-11T11:03:20.555Z,20.03
2019-05-11T11:05:31.528Z,20.11
2019-05-11T11:07:42.371Z,20.26
2019-05-11T11:09:53.259Z,20.47
2019-05-11T11:12:04.272Z,20.40
2019-05-11T11:14:15.113Z,20.39
2019-05-11T11:16:36.839Z,20.45
2019-05-11T11:18:38.762Z,20.28
2019-05-11T11:20:49.725Z,20.27
2019-05-11T11:23:00.579Z,20.36
2019-05-11T11:25:11.829Z,20.50
2019-05-11T11:27:22.697Z,20.36
2019-05-11T11:29:33.560Z,20.29
2019-05-11T11:31:44.429Z,20.08
2019-05-11T11:33:58.258Z,19.92
2019-05-11T11:36:08.629Z,19.88
2019-05-11T11:38:19.512Z,19.97
2019-05-11T11:40:31.309Z,20.19
2019-05-11T11:42:42.167Z,20.15
2019-05-11T11:44:53.006Z,20.17
2019-05-11T11:47:03.880Z,20.22
2019-05-11T11:49:18.799Z,20.23
2019-05-11T11:51:29.639Z,20.18
2019-05-11T11:53:40.603Z,20.04
2019-05-11T11:55:51.561Z,20.00
2019-05-11T11:58:02.565Z,19.90
2019-05-11T12:00:13.706Z,19.96
2019-05-11T12:02:24.580Z,19.92
2019-05-11T12:04:35.426Z,19.77
2019-05-11T12:06:46.281Z,19.66
2019-05-11T12:08:58.506Z,19.51
2019-05-11T12:11:09.614Z,19.22
2019-05-11T12:13:20.538Z,19.24
2019-05-11T12:15:31.636Z,19.46
2019-05-11T12:17:42.516Z,19.57
2019-05-11T12:19:53.370Z,19.53
2019-05-11T12:22:04.447Z,19.53
2019-05-11T12:24:15.587Z,19.58
2019-05-11T12:26:28.208Z,19.63
2019-05-11T12:28:39.223Z,19.85
2019-05-11T12:30:50.213Z,19.90
2019-05-11T12:33:01.445Z,19.88
2019-05-11T12:35:12.540Z,19.82
2019-05-11T12:37:23.561Z,19.73
2019-05-11T12:39:34.467Z,19.81
2019-05-11T12:41:45.342Z,19.81
2019-05-11T12:43:57.774Z,19.82
2019-05-11T12:46:08.874Z,19.91
2019-05-11T12:48:19.954Z,19.98
2019-05-11T12:50:30.842Z,20.02
2019-05-11T12:52:41.787Z,20.04
2019-05-11T12:54:52.648Z,20.18
2019-05-11T12:57:03.702Z,20.43
2019-05-11T12:59:14.685Z,20.59
2019-05-11T13:01:25.629Z,20.51
2019-05-11T13:03:38.606Z,20.45
2019-05-11T13:05:49.325Z,20.36
2019-05-11T13:08:00.172Z,20.44
2019-05-11T13:10:12.158Z,20.55
2019-05-11T13:12:23.112Z,20.73
2019-05-11T13:14:33.991Z,20.94
2019-05-11T13:16:44.841Z,20.88
2019-05-11T13:18:57.547Z,20.67
2019-05-11T13:21:08.537Z,20.55
2019-05-11T13:23:19.486Z,20.48
2019-05-11T13:25:30.373Z,20.50
2019-05-11T13:27:41.212Z,20.63
2019-05-11T13:29:52.069Z,20.75
2019-05-11T13:32:02.934Z,20.57
2019-05-11T13:34:13.772Z,20.45
2019-05-11T13:36:24.771Z,20.25
2019-05-11T13:38:35.733Z,19.90
2019-05-11T13:40:48.806Z,19.80
2019-05-11T13:42:59.444Z,19.76
2019-05-11T13:45:10.925Z,19.58
2019-05-11T13:47:21.809Z,19.31
2019-05-11T13:49:32.820Z,18.86
2019-05-11T13:51:43.731Z,18.44
2019-05-11T13:53:54.826Z,17.91
2019-05-11T13:56:07.775Z,17.55
2019-05-11T13:58:19.861Z,16.96
2019-05-11T14:00:31.044Z,16.50
2019-05-11T14:02:42.018Z,16.23
2019-05-11T14:04:53.059Z,15.96
2019-05-11T14:07:04.034Z,15.71
2019-05-11T14:09:15.006Z,15.49
2019-05-11T14:11:28.485Z,15.41
2019-05-11T14:13:39.137Z,15.26
2019-05-11T14:15:50.042Z,15.17
2019-05-11T14:18:07.760Z,15.13
2019-05-11T14:20:13.927Z,15.06
2019-05-11T14:22:24.881Z,15.15
2019-05-11T14:24:37.632Z,15.22
2019-05-11T14:26:48.983Z,15.33
2019-05-11T14:28:59.883Z,15.51
2019-05-11T14:31:10.821Z,15.66
2019-05-11T14:33:21.720Z,15.86
2019-05-11T14:35:32.670Z,16.29
2019-05-11T14:37:43.561Z,16.74
2019-05-11T14:39:54.393Z,16.90
2019-05-11T14:42:07.545Z,17.16
2019-05-11T14:44:18.351Z,17.31
2019-05-11T14:46:29.334Z,17.33
2019-05-11T14:48:40.268Z,17.06
2019-05-11T14:50:51.216Z,16.58
2019-05-11T14:53:02.212Z,16.05
2019-05-11T14:55:13.262Z,15.67
2019-05-11T14:57:24.110Z,15.21
2019-05-11T14:59:35.070Z,14.92
2019-05-11T15:01:48.784Z,14.45
2019-05-11T15:03:58.936Z,14.18
2019-05-11T15:06:09.751Z,14.00
2019-05-11T15:08:20.749Z,13.95
2019-05-11T15:10:31.711Z,13.79
2019-05-11T15:12:42.683Z,13.63
2019-05-11T15:14:53.677Z,13.76
2019-05-11T15:17:04.523Z,13.79
2019-05-11T15:19:15.396Z,13.87
2019-05-11T15:21:28.086Z,13.93
2019-05-11T15:23:38.999Z,14.02
2019-05-11T15:25:49.990Z,14.11
2019-05-11T15:28:00.930Z,14.14
2019-05-11T15:30:13.701Z,14.30
2019-05-11T15:32:24.565Z,14.50
2019-05-11T15:34:35.426Z,14.66
2019-05-11T15:36:48.808Z,14.74
2019-05-11T15:38:59.156Z,14.79
2019-05-11T15:41:10.125Z,14.81
2019-05-11T15:43:20.977Z,14.79
2019-05-11T15:45:32.093Z,14.69
2019-05-11T15:47:43.146Z,14.71
2019-05-11T15:49:54.022Z,14.61
2019-05-11T15:52:04.976Z,14.56
2019-05-11T15:54:18.347Z,14.59
2019-05-11T15:56:28.849Z,14.69
2019-05-11T15:58:39.791Z,14.65
2019-05-11T16:00:50.661Z,14.60
2019-05-11T16:03:01.494Z,14.55
2019-05-11T16:05:12.523Z,14.50
2019-05-11T16:07:23.395Z,14.55
2019-05-11T16:09:34.340Z,14.57
2019-05-11T16:11:47.738Z,14.49
2019-05-11T16:13:58.624Z,14.42
2019-05-11T16:16:09.688Z,14.34
2019-05-11T16:18:20.567Z,14.35
2019-05-11T16:20:31.576Z,14.41
2019-05-11T16:22:42.467Z,14.51
2019-05-11T16:24:53.339Z,14.50
2019-05-11T16:27:04.321Z,14.59
2019-05-11T16:29:15.183Z,14.71
2019-05-11T16:31:28.296Z,14.79
2019-05-11T16:33:38.861Z,14.85
2019-05-11T16:35:49.808Z,14.78
2019-05-11T16:38:00.761Z,14.68
2019-05-11T16:40:11.849Z,14.71
2019-05-11T16:42:22.803Z,14.65
2019-05-11T16:44:33.651Z,14.53
2019-05-11T16:46:44.534Z,14.41
2019-05-11T16:48:57.763Z,14.26
2019-05-11T16:51:08.769Z,14.07
2019-05-11T16:53:19.813Z,14.04
2019-05-11T16:55:30.853Z,13.90
2019-05-11T16:57:41.944Z,13.63
2019-05-11T16:59:52.900Z,13.34
2019-05-11T17:02:03.853Z,13.29
2019-05-11T17:04:14.719Z,13.10
2019-05-11T17:06:25.580Z,13.07
2019-05-11T17:08:38.408Z,13.21
2019-05-11T17:10:59.163Z,13.08
2019-05-11T17:13:10.546Z,12.91
2019-05-11T17:15:21.403Z,12.74
2019-05-11T17:17:32.273Z,12.81
2019-05-11T17:19:46.297Z,12.76
2019-05-11T17:21:56.098Z,12.82
2019-05-11T17:24:07.155Z,12.75
2019-05-11T17:26:19.041Z,12.65
2019-05-11T17:28:30.152Z,12.68
2019-05-11T17:30:41.124Z,12.73
2019-05-11T17:32:52.030Z,12.76
2019-05-11T17:35:04.127Z,12.77
2019-05-11T17:37:15.100Z,12.70
2019-05-11T17:39:27.744Z,12.66
2019-05-11T17:41:38.982Z,12.66
2019-05-11T17:43:49.948Z,12.67
2019-05-11T17:46:00.799Z,12.68
2019-05-11T17:48:13.678Z,12.62
2019-05-11T17:50:24.655Z,12.65
2019-05-11T17:52:35.511Z,12.67
2019-05-11T17:54:47.789Z,12.64
2019-05-11T17:56:58.747Z,12.64
2019-05-11T17:59:09.599Z,12.63
2019-05-11T18:01:20.441Z,12.55
2019-05-11T18:03:31.294Z,12.58
2019-05-11T18:05:42.280Z,12.54
2019-05-11T18:07:53.234Z,12.56
2019-05-11T18:10:04.489Z,12.34
2019-05-11T18:12:17.212Z,12.19
2019-05-11T18:14:28.321Z,12.08
2019-05-11T18:16:39.132Z,12.09
2019-05-11T18:18:50.009Z,12.01
2019-05-11T18:21:01.009Z,11.94
2019-05-11T18:23:11.970Z,11.94
2019-05-11T18:25:22.968Z,11.92
2019-05-11T18:27:33.841Z,11.86
2019-05-11T18:29:44.773Z,11.88
2019-05-11T18:31:57.827Z,11.83
2019-05-11T18:34:09.076Z,11.67
2019-05-11T18:36:20.132Z,11.70
2019-05-11T18:38:30.973Z,11.69
2019-05-11T18:40:41.838Z,11.67
2019-05-11T18:42:52.806Z,11.64
2019-05-11T18:45:04.464Z,11.64
2019-05-11T18:47:15.340Z,11.58
2019-05-11T18:49:28.447Z,11.60
2019-05-11T18:51:39.089Z,11.60
2019-05-11T18:53:50.159Z,11.61
2019-05-11T18:56:01.150Z,11.56
2019-05-11T18:58:12.188Z,11.52
2019-05-11T19:00:23.061Z,11.50
2019-05-11T19:02:34.048Z,11.50
2019-05-11T19:04:44.903Z,11.46
2019-05-11T19:06:55.806Z,11.46
2019-05-11T19:09:07.255Z,11.43
2019-05-11T19:11:18.437Z,11.42
2019-05-11T19:13:29.419Z,11.36
2019-05-11T19:15:41.390Z,11.28
2019-05-11T19:17:52.393Z,11.32
2019-05-11T19:20:05.565Z,11.31
2019-05-11T19:22:18.337Z,11.29
2019-05-11T19:24:29.225Z,11.30
2019-05-11T19:26:40.207Z,11.29
2019-05-11T19:28:53.585Z,11.25
2019-05-11T19:31:04.558Z,11.23
2019-05-11T19:33:15.528Z,11.21
2019-05-11T19:35:28.648Z,11.07
2019-05-11T19:37:39.352Z,11.09
2019-05-11T19:39:50.852Z,11.03
2019-05-11T19:42:01.796Z,11.06
2019-05-11T19:44:12.667Z,11.08
2019-05-11T19:46:23.540Z,11.06
2019-05-11T19:48:34.534Z,11.03
2019-05-11T19:50:59.922Z,10.99
2019-05-11T19:52:58.262Z,10.95
2019-05-11T19:55:09.348Z,10.99
2019-05-11T19:57:20.307Z,10.96
2019-05-11T19:59:31.290Z,10.89
2019-05-11T20:01:42.286Z,10.86
2019-05-11T20:03:53.202Z,10.85
2019-05-11T20:06:04.282Z,10.78
2019-05-11T20:08:15.243Z,10.79
2019-05-11T20:10:27.716Z,10.65
2019-05-11T20:12:41.386Z,10.54
2019-05-11T20:14:51.538Z,10.56
2019-05-11T20:17:02.514Z,10.55
2019-05-11T20:19:14.155Z,10.55
2019-05-11T20:21:25.152Z,10.55
2019-05-11T20:23:37.841Z,10.57
2019-05-11T20:25:48.876Z,10.52
2019-05-11T20:27:59.721Z,10.53
2019-05-11T20:30:10.705Z,10.52
2019-05-11T20:32:21.576Z,10.56
2019-05-11T20:34:32.544Z,10.46
2019-05-11T20:36:43.505Z,10.46
2019-05-11T20:38:54.383Z,10.43
2019-05-11T20:41:05.260Z,10.42
2019-05-11T20:43:18.394Z,10.46
2019-05-11T20:45:29.083Z,10.45
2019-05-11T20:47:40.063Z,10.44
2019-05-11T20:49:51.063Z,10.45
2019-05-11T20:52:01.929Z,10.44
2019-05-11T20:54:12.798Z,10.36
2019-05-11T20:56:23.676Z,10.36
2019-05-11T20:58:53.339Z,10.35
2019-05-11T21:01:04.276Z,10.28
2019-05-11T21:03:15.255Z,10.23
2019-05-11T21:05:26.208Z,10.27
2019-05-11T21:07:38.953Z,10.28
2019-05-11T21:09:49.963Z,10.22
2019-05-11T21:12:02.998Z,10.22
2019-05-11T21:14:13.723Z,10.22
2019-05-11T21:16:24.718Z,10.20
2019-05-11T21:18:38.011Z,10.19
2019-05-11T21:20:48.517Z,10.14
2019-05-11T21:22:59.477Z,10.10
2019-05-11T21:25:10.633Z,10.06
2019-05-11T21:27:21.522Z,10.05
2019-05-11T21:29:32.426Z,10.06
2019-05-11T21:31:43.293Z,10.07
2019-05-11T21:33:54.186Z,10.08
2019-05-11T21:36:05.237Z,10.11
2019-05-11T21:38:17.724Z,10.04
2019-05-11T21:40:31.264Z,9.99
2019-05-11T21:42:41.554Z,10.01
2019-05-11T21:44:54.307Z,10.00
2019-05-11T21:47:05.177Z,9.99
2019-05-11T21:49:18.289Z,9.97
2019-05-11T21:51:28.907Z,10.00
2019-05-11T21:53:39.770Z,10.00
2019-05-11T21:55:50.606Z,9.94
2019-05-11T21:58:01.584Z,9.90
2019-05-11T22:00:12.874Z,9.96
2019-05-11T22:02:24.060Z,9.90
2019-05-11T22:04:35.038Z,9.93
2019-05-11T22:06:48.232Z,9.92
2019-05-11T22:08:59.076Z,9.87
2019-05-11T22:11:09.957Z,9.85
2019-05-11T22:13:20.837Z,9.86
2019-05-11T22:15:31.685Z,9.75
2019-05-11T22:17:42.544Z,9.81
2019-05-11T22:19:53.486Z,9.82
2019-05-11T22:22:18.154Z,9.79
2019-05-11T22:24:17.986Z,9.79
2019-05-11T22:26:28.982Z,9.77
2019-05-11T22:28:39.864Z,9.71
2019-05-11T22:30:50.687Z,9.70
2019-05-11T22:33:01.763Z,9.68
2019-05-11T22:37:43.334Z,9.62
2019-05-11T22:39:54.343Z,9.65
2019-05-11T22:42:05.142Z,9.63
2019-05-11T22:44:18.146Z,9.63
2019-05-11T22:46:28.779Z,9.63
2019-05-11T22:48:39.627Z,9.58
2019-05-11T22:50:50.795Z,9.59
2019-05-11T22:53:01.753Z,9.55
2019-05-11T22:55:12.743Z,9.52
2019-05-11T22:57:23.594Z,9.58
2019-05-11T22:59:34.493Z,9.61
2019-05-11T23:01:45.322Z,9.61
2019-05-11T23:03:58.408Z,9.56
2019-05-11T23:06:08.948Z,9.56
2019-05-11T23:08:19.862Z,9.59
2019-05-11T23:10:30.729Z,9.63
2019-05-11T23:12:41.598Z,9.57
2019-05-11T23:15:09.446Z,9.57
2019-05-11T23:17:20.305Z,9.60
2019-05-11T23:19:31.146Z,9.53
2019-05-11T23:21:42.052Z,9.56
2019-05-11T23:23:53.004Z,9.56
2019-05-11T23:26:03.962Z,9.53
2019-05-11T23:28:15.040Z,9.54
2019-05-11T23:30:28.075Z,9.57
2019-05-11T23:32:38.936Z,9.56
2019-05-11T23:34:49.756Z,9.55
2019-05-11T23:37:00.637Z,9.49
2019-05-11T23:39:11.490Z,9.51
2019-05-11T23:41:24.990Z,9.51
2019-05-11T23:43:37.907Z,9.54
2019-05-11T23:45:48.767Z,9.50
2019-05-11T23:47:59.628Z,9.53
2019-05-11T23:50:11.622Z,9.45
2019-05-11T23:52:22.505Z,9.42
2019-05-11T23:54:33.337Z,9.38
2019-05-11T23:56:44.285Z,9.37
2019-05-11T23:58:57.732Z,9.37
